Main page
METAR-TAF:

METAR-TAF

Airports :

Elkhart–Morton County Airport

Elkhart, Kansas, United States

latitude: 37-00N, longitude: 101-54W, elevation: 3605 ft

Current weather observation

The report was made 39 minutes ago, at 03:35 UTC
Wind 9 mph from the North/Northeast
Temperature 70°F
Humidity 78%
Pressure 29.88 in. Hg
Visibility: 10 miles
Scattered clouds at a height of 7500 ft
Scattered clouds at a height of 9000 ft

METAR: KEHA 190335Z AUTO 02008KT 10SM SCT075 SCT090 21/17 A2988 RMK AO2 T02110170

Time: 23:14 (04:14 UTC)


TAF: missing

Weather observations and forecasts of more than 4000 airports (METAR and TAF reports).

The available stations are represented by yellow and red dots on the map.

Hover mouse over dot to see the name of the station.

Then click to see weather observations and forecasts.

To change the map : click on the green buttons with a black cross to zoom in, on the green button with a dash to zoom out, or on the green arrows for adjacent maps.


METAR-TAF: